Time;durP1;ratioP1;P1;durP2;ratioP2;P2;SDS_P1;SDS_P2;PMS_P1;PMS_P2;Temp;Humidity;BMP_temperature;BMP_pressure;BME280_temperature;BME280_humidity;BME280_pressure;Samples;Min_cycle;Max_cycle;Signal;HPM_P1;HPM_P2
2024/04/04 00:02:06;;;;;;;23.10;6.18;;;12.10;99.90;;;12.31;92.96;100432.63;5015189;28;20080;-65
2024/04/04 00:04:33;;;;;;;15.63;5.80;;;12.00;99.90;;;12.37;92.45;100427.19;5015372;28;20048;-66
2024/04/04 00:06:59;;;;;;;22.67;6.13;;;12.10;99.90;;;12.37;92.25;100424.53;5015589;28;20045;-66
2024/04/04 00:09:27;;;;;;;22.40;6.10;;;12.00;99.90;;;12.43;91.83;100432.38;5014985;28;20072;-66
2024/04/04 00:11:54;;;;;;;19.10;5.78;;;12.10;99.90;;;12.25;91.23;100408.88;5015907;28;20049;-66
2024/04/04 00:14:23;;;;;;;19.02;6.43;;;12.10;99.90;;;12.36;90.88;100410.44;5015663;28;20128;-66
2024/04/04 00:16:49;;;;;;;17.88;6.72;;;12.10;99.90;;;12.35;90.60;100416.63;5015600;28;20053;-66
2024/04/04 00:19:16;;;;;;;16.33;6.40;;;12.10;99.90;;;12.40;90.60;100409.47;5015987;28;20398;-66
2024/04/04 00:21:43;;;;;;;13.77;5.10;;;12.10;99.90;;;12.34;90.30;100398.09;5015433;28;20053;-66
2024/04/04 00:24:10;;;;;;;16.50;5.85;;;12.10;99.90;;;12.48;90.25;100409.31;5015479;28;20054;-66
2024/04/04 00:26:36;;;;;;;18.92;6.22;;;12.10;99.90;;;12.48;90.19;100409.31;5015746;28;20037;-66
2024/04/04 00:29:04;;;;;;;15.45;5.20;;;12.10;99.90;;;12.47;89.72;100412.84;5015974;28;20049;-66
2024/04/04 00:31:31;;;;;;;15.02;5.75;;;12.20;99.90;;;12.53;89.78;100405.66;5015581;28;20394;-66
2024/04/04 00:33:59;;;;;;;15.38;5.93;;;12.20;99.90;;;12.41;89.89;100379.38;5015385;28;20052;-65
2024/04/04 00:36:26;;;;;;;18.73;5.70;;;12.30;99.90;;;12.57;90.30;100398.50;5015349;28;20452;-66
2024/04/04 00:38:53;;;;;;;17.85;5.20;;;12.30;99.90;;;12.58;90.73;100393.16;5015468;28;20045;-67
2024/04/04 00:41:20;;;;;;;20.60;5.65;;;12.30;99.90;;;12.64;91.02;100400.13;5015312;28;20406;-67
2024/04/04 00:43:46;;;;;;;15.45;5.53;;;12.30;99.90;;;12.67;91.60;100389.47;5015127;28;20068;-67
2024/04/04 00:46:14;;;;;;;22.65;5.93;;;12.40;99.90;;;12.72;91.80;100392.88;5015022;28;20041;-67
2024/04/04 00:48:41;;;;;;;21.27;5.93;;;12.40;99.90;;;12.68;92.43;100377.94;4998985;28;20052;-67
2024/04/04 00:51:09;;;;;;;13.93;5.30;;;12.40;99.90;;;12.66;93.20;100379.75;5014888;28;20056;-67
2024/04/04 00:53:36;;;;;;;20.88;5.72;;;12.40;99.90;;;12.73;93.34;100381.38;5015140;28;20049;-66
2024/04/04 00:56:04;;;;;;;15.13;5.38;;;12.40;99.90;;;12.73;93.50;100380.50;5015116;28;20046;-66
2024/04/04 00:58:31;;;;;;;15.60;5.40;;;12.50;99.90;;;12.70;93.96;100378.78;5015118;28;20453;-66
2024/04/04 01:00:58;;;;;;;21.77;6.18;;;12.40;99.90;;;12.77;94.41;100368.91;5015243;28;20045;-66
2024/04/04 01:03:24;;;;;;;12.20;5.70;;;12.50;99.90;;;12.78;94.11;100355.59;5014845;28;20041;-67
2024/04/04 01:05:53;;;;;;;18.70;5.28;;;12.50;99.90;;;12.82;94.09;100364.38;4998535;28;20033;-66
2024/04/04 01:08:21;;;;;;;18.15;5.60;;;12.50;99.90;;;12.74;94.10;100359.22;5014868;28;20042;-66
2024/04/04 01:10:49;;;;;;;19.30;5.95;;;12.50;99.90;;;12.64;93.84;100334.69;5015069;28;20038;-66
2024/04/04 01:13:15;;;;;;;16.08;5.72;;;12.50;99.90;;;12.79;93.61;100357.38;5014979;28;20076;-67
2024/04/04 01:15:43;;;;;;;18.83;5.68;;;12.50;99.90;;;12.88;93.64;100353.63;5014280;28;20406;-67
2024/04/04 01:18:09;;;;;;;16.35;5.47;;;12.60;99.90;;;12.98;93.39;100353.41;5014822;28;20052;-66
2024/04/04 01:20:37;;;;;;;14.27;5.80;;;12.60;99.90;;;13.02;93.37;100347.13;5014782;28;20060;-66
2024/04/04 01:23:04;;;;;;;20.95;6.10;;;12.70;99.90;;;13.03;93.15;100345.31;5015013;28;20049;-66
2024/04/04 01:25:33;;;;;;;13.18;5.20;;;12.70;99.90;;;13.06;92.66;100339.97;5014751;28;20406;-66
2024/04/04 01:28:00;;;;;;;16.63;5.82;;;12.80;99.90;;;13.07;92.80;100333.75;5015024;28;20068;-66
2024/04/04 01:30:27;;;;;;;17.30;5.45;;;12.80;99.90;;;13.07;92.69;100336.41;5013735;28;20041;-66
2024/04/04 01:32:54;;;;;;;10.98;5.00;;;12.80;99.90;;;13.04;92.98;100339.16;5012794;28;20053;-65
2024/04/04 01:35:20;;;;;;;12.30;5.10;;;12.80;99.90;;;12.88;93.62;100325.31;5012803;28;20437;-66
2024/04/04 01:37:48;;;;;;;11.95;5.10;;;12.70;99.90;;;12.86;94.07;100321.81;5012873;28;20152;-66
2024/04/04 01:40:14;;;;;;;17.38;6.25;;;12.60;99.90;;;12.85;94.17;100328.03;5012804;28;20037;-65
2024/04/04 01:42:43;;;;;;;13.73;5.13;;;12.60;99.90;;;12.92;94.57;100315.50;5012795;28;20607;-65
2024/04/04 01:45:10;;;;;;;16.17;5.78;;;12.60;99.90;;;12.86;94.65;100316.50;5013526;28;20042;-65
2024/04/04 01:47:37;;;;;;;18.55;5.30;;;12.60;99.90;;;12.91;94.75;100317.25;5013737;28;20038;-65
2024/04/04 01:50:05;;;;;;;11.38;5.18;;;12.60;99.90;;;12.88;95.06;100309.38;5009375;28;20061;-65
2024/04/04 01:52:33;;;;;;;13.98;5.03;;;12.60;99.90;;;12.80;95.43;100299.84;5009452;28;20458;-66
2024/04/04 01:54:59;;;;;;;19.40;5.93;;;12.60;99.90;;;12.82;95.58;100298.91;5009304;28;20092;-66
2024/04/04 01:57:26;;;;;;;14.50;4.93;;;12.50;99.90;;;12.87;95.92;100306.78;5009422;28;20042;-65
2024/04/04 01:59:54;;;;;;;18.15;5.90;;;12.60;99.90;;;12.94;96.44;100297.75;5009257;28;20042;-65
2024/04/04 02:02:21;;;;;;;16.52;5.30;;;12.60;99.90;;;12.85;96.74;100295.31;5009231;28;20391;-65
2024/04/04 02:04:48;;;;;;;15.02;5.55;;;12.60;99.90;;;12.82;96.82;100287.41;5009791;28;20394;-66
2024/04/04 02:07:15;;;;;;;14.52;5.07;;;12.50;99.90;;;12.86;97.35;100284.66;5009252;28;20423;-65
2024/04/04 02:09:41;;;;;;;12.35;5.43;;;12.50;99.90;;;12.85;97.79;100277.63;5009911;28;20442;-66
2024/04/04 02:12:09;;;;;;;15.90;5.50;;;12.60;99.90;;;12.80;98.49;100275.94;5011470;28;20387;-66
2024/04/04 02:14:36;;;;;;;12.35;5.35;;;12.50;99.90;;;12.67;99.46;100278.03;5010248;28;20125;-66
2024/04/04 02:17:06;;;;;;;18.25;5.53;;;12.40;99.90;;;12.62;99.48;100275.47;5012693;28;20096;-65
2024/04/04 02:19:32;;;;;;;19.67;6.15;;;12.40;99.90;;;12.59;100.00;100278.19;5013575;28;20054;-66
2024/04/04 02:22:00;;;;;;;19.17;6.20;;;12.30;99.90;;;12.44;100.00;100259.09;5013293;28;20041;-65
2024/04/04 02:24:26;;;;;;;21.48;6.55;;;12.20;99.90;;;12.26;100.00;100248.88;4996089;28;20077;-65
2024/04/04 02:26:53;;;;;;;18.25;7.05;;;12.10;99.90;;;12.21;100.00;100271.97;5012617;28;20057;-66
2024/04/04 02:29:21;;;;;;;14.40;5.70;;;12.00;99.90;;;12.21;100.00;100235.72;5012559;28;20372;-66
2024/04/04 02:31:48;;;;;;;14.55;5.65;;;12.00;99.90;;;12.09;100.00;100233.31;5012293;28;20042;-66
2024/04/04 02:34:16;;;;;;;13.95;5.90;;;11.90;99.90;;;12.20;100.00;100243.69;5012602;28;20475;-65
2024/04/04 02:36:44;;;;;;;11.45;5.82;;;11.90;99.90;;;12.22;100.00;100228.63;5012424;28;20046;-65
2024/04/04 02:39:13;;;;;;;19.38;6.28;;;12.00;99.90;;;12.22;100.00;100220.66;4996317;28;20069;-66
2024/04/04 02:41:41;;;;;;;18.17;6.32;;;11.90;99.90;;;12.24;100.00;100214.44;5012617;28;20049;-65
2024/04/04 02:44:07;;;;;;;15.35;5.78;;;12.00;99.90;;;12.23;100.00;100212.69;5012402;28;20046;-66
2024/04/04 02:46:35;;;;;;;14.27;5.45;;;12.00;99.90;;;12.11;100.00;100217.38;5012268;28;20108;-66
2024/04/04 02:49:01;;;;;;;13.75;5.85;;;11.90;99.90;;;12.15;100.00;100208.47;5012235;28;20144;-66
2024/04/04 02:51:32;;;;;;;19.42;6.40;;;11.90;99.90;;;12.04;100.00;100210.47;5012103;28;20042;-66
2024/04/04 02:53:58;;;;;;;;;;;11.90;99.90;;;12.06;100.00;100212.16;5012619;28;20450;-66
2024/04/04 02:56:26;;;;;;;12.65;5.65;;;11.80;99.90;;;12.14;100.00;100193.44;5012103;28;19929;-65
2024/04/04 02:58:52;;;;;;;14.60;5.85;;;11.90;99.90;;;12.19;100.00;100196.88;5012017;28;20088;-65
2024/04/04 03:01:19;;;;;;;13.07;6.40;;;11.90;99.90;;;12.25;100.00;100187.00;5011983;28;20049;-66
2024/04/04 03:03:46;;;;;;;15.05;6.45;;;12.00;99.90;;;12.23;100.00;100182.66;5011786;28;20049;-67
2024/04/04 03:06:18;;;;;;;15.52;6.13;;;12.00;99.90;;;12.31;100.00;100172.75;5011927;28;20084;-66
2024/04/04 03:08:46;;;;;;;12.73;6.32;;;12.00;99.90;;;12.26;100.00;100179.94;5012002;28;20459;-65
2024/04/04 03:11:13;;;;;;;9.63;6.03;;;12.00;99.90;;;12.31;100.00;100173.63;5011812;28;20485;-66
2024/04/04 03:13:39;;;;;;;13.98;6.80;;;12.00;99.90;;;12.38;100.00;100184.97;5011638;28;20073;-66
2024/04/04 03:16:07;;;;;;;12.27;7.47;;;12.10;99.90;;;12.36;100.00;100170.88;5011964;28;20049;-65
2024/04/04 03:18:34;;;;;;;14.82;7.75;;;12.10;99.90;;;12.40;100.00;100159.28;5012009;28;20063;-66
2024/04/04 03:21:01;;;;;;;18.40;8.13;;;12.10;99.90;;;12.39;100.00;100161.06;4995060;28;20522;-65
2024/04/04 03:23:27;;;;;;;15.95;8.52;;;12.10;99.90;;;12.38;100.00;100161.09;5011255;28;20053;-66
2024/04/04 03:25:56;;;;;;;16.00;9.32;;;12.10;99.90;;;12.47;100.00;100153.78;5011104;28;20066;-65
2024/04/04 03:28:23;;;;;;;14.00;8.98;;;12.10;99.90;;;12.43;100.00;100153.88;5010821;28;20392;-65
2024/04/04 03:30:50;;;;;;;15.52;9.40;;;12.20;99.90;;;12.48;100.00;100138.75;5027811;28;20275;-65
2024/04/04 03:33:16;;;;;;;14.20;9.70;;;12.20;99.90;;;12.62;100.00;100148.13;5011502;28;20431;-66
2024/04/04 03:35:44;;;;;;;19.27;11.73;;;12.40;99.90;;;12.59;100.00;100137.59;5011199;28;20046;-66
2024/04/04 03:38:11;;;;;;;16.83;10.45;;;12.30;99.90;;;12.59;100.00;100152.63;5011317;28;20057;-66
2024/04/04 03:40:38;;;;;;;12.48;9.50;;;12.30;99.90;;;12.68;100.00;100128.50;5011302;28;20418;-65
2024/04/04 03:43:08;;;;;;;18.05;10.90;;;12.40;99.90;;;12.68;100.00;100126.75;5011169;28;20449;-66
2024/04/04 03:45:38;;;;;;;16.60;9.68;;;12.40;99.90;;;12.72;100.00;100124.88;5011095;28;20129;-66
2024/04/04 03:48:07;;;;;;;15.55;10.30;;;12.40;99.90;;;12.74;100.00;100124.88;5011007;28;20054;-66
2024/04/04 03:50:33;;;;;;;13.30;9.65;;;12.40;99.90;;;12.79;100.00;100115.00;5010852;28;20080;-66
2024/04/04 03:53:01;;;;;;;13.68;9.13;;;12.50;99.90;;;12.72;100.00;100106.31;5011150;28;20049;-66
2024/04/04 03:55:27;;;;;;;14.85;10.07;;;12.50;99.90;;;12.78;100.00;100100.84;5010744;28;20074;-65
2024/04/04 03:57:54;;;;;;;10.68;8.80;;;12.50;99.90;;;12.84;100.00;100089.19;5011334;28;20049;-66
2024/04/04 04:00:22;;;;;;;11.25;7.63;;;12.60;99.90;;;12.74;100.00;100069.16;5011147;28;20537;-65
2024/04/04 04:02:49;;;;;;;10.25;7.68;;;12.50;99.90;;;12.44;100.00;100053.09;5011124;28;20415;-67
2024/04/04 04:05:16;;;;;;;13.90;7.65;;;12.30;99.90;;;12.42;100.00;100069.94;5010896;28;20050;-67
2024/04/04 04:07:43;;;;;;;10.57;7.88;;;12.20;99.90;;;12.42;100.00;100051.38;5010667;28;20038;-66
2024/04/04 04:10:11;;;;;;;9.43;7.18;;;12.20;99.90;;;12.45;100.00;100056.59;5027046;28;20614;-66
2024/04/04 04:12:38;;;;;;;8.95;7.15;;;12.20;99.90;;;11.78;100.00;99930.16;5010885;28;20092;-65
2024/04/04 04:15:06;;;;;;;9.23;6.95;;;12.20;99.90;;;12.60;100.00;100050.94;5010786;28;20053;-66
2024/04/04 04:17:35;;;;;;;10.00;7.55;;;12.30;99.90;;;12.66;100.00;100048.09;5011052;28;20046;-66
2024/04/04 04:21:16;;;;;;;7.20;6.50;;;12.40;99.90;;;12.59;100.00;100039.44;5010418;28;20038;-66
2024/04/04 04:22:50;;;;;;;6.47;5.88;;;12.40;99.90;;;12.66;100.00;100032.16;5010107;28;20046;-66
2024/04/04 04:25:16;;;;;;;8.60;6.93;;;12.50;99.90;;;12.77;100.00;100032.78;5010310;28;20095;-65
2024/04/04 04:27:43;;;;;;;6.80;6.18;;;12.50;99.90;;;12.76;100.00;100041.63;5010396;28;20042;-66
2024/04/04 04:30:10;;;;;;;7.78;7.07;;;12.60;99.90;;;12.80;100.00;100053.03;4993832;28;20053;-65
2024/04/04 04:32:39;;;;;;;9.63;7.97;;;12.60;99.90;;;12.78;100.00;100046.88;5010365;28;20168;-65
2024/04/04 04:35:07;;;;;;;10.45;8.40;;;12.60;99.90;;;12.82;100.00;100057.41;5026488;28;20049;-65
2024/04/04 04:37:35;;;;;;;10.77;9.68;;;12.60;99.90;;;12.82;100.00;100059.16;5010169;28;20407;-66
2024/04/04 04:40:01;;;;;;;10.88;9.65;;;12.60;99.90;;;12.84;100.00;100037.00;5010237;28;20050;-65
2024/04/04 04:42:29;;;;;;;10.85;9.75;;;12.60;99.90;;;12.95;100.00;100040.22;5010007;28;20565;-65
2024/04/04 04:44:56;;;;;;;11.35;10.35;;;12.60;99.90;;;12.79;100.00;99995.56;5009944;28;20042;-65
2024/04/04 04:47:23;;;;;;;10.98;9.98;;;12.60;99.90;;;12.99;100.00;100033.91;5010266;28;20049;-66
2024/04/04 04:49:51;;;;;;;11.68;10.57;;;12.70;99.90;;;12.97;100.00;100035.75;5010301;28;20179;-65
2024/04/04 04:52:19;;;;;;;11.55;10.45;;;12.70;99.90;;;13.00;100.00;100024.19;5010011;28;20093;-64
2024/04/04 04:54:45;;;;;;;11.88;10.40;;;12.70;99.90;;;12.98;100.00;100032.19;5010021;28;20054;-65
2024/04/04 04:57:13;;;;;;;12.68;9.93;;;12.70;99.90;;;12.98;100.00;100018.03;5009922;28;20042;-66
2024/04/04 04:59:39;;;;;;;9.60;8.57;;;12.70;99.90;;;13.06;100.00;100029.34;5010460;28;20046;-66
2024/04/04 05:02:06;;;;;;;9.48;8.00;;;12.70;99.90;;;13.05;100.00;100020.50;5010042;28;20417;-66
2024/04/04 05:04:33;;;;;;;8.05;6.80;;;12.80;99.90;;;13.08;100.00;100015.13;4993475;28;20487;-67
2024/04/04 05:07:02;;;;;;;10.30;6.53;;;12.80;99.90;;;13.05;100.00;99999.28;5009788;28;20081;-67
2024/04/04 05:09:28;;;;;;;6.45;5.80;;;12.80;99.90;;;13.13;100.00;100009.66;5009922;28;20084;-67
2024/04/04 05:11:56;;;;;;;5.45;4.82;;;12.80;99.90;;;13.16;100.00;100002.47;5009627;28;20049;-67
2024/04/04 05:14:22;;;;;;;6.35;5.05;;;12.80;99.90;;;13.23;100.00;99995.22;4993507;28;20057;-66
2024/04/04 05:16:51;;;;;;;5.05;4.55;;;12.90;99.90;;;13.20;100.00;100009.44;5009872;28;20384;-68
2024/04/04 05:19:18;;;;;;;5.80;4.47;;;12.90;99.90;;;13.22;100.00;99999.66;5009734;28;20399;-66
2024/04/04 05:21:45;;;;;;;5.80;4.18;;;12.90;99.90;;;13.19;100.00;99994.44;5009607;28;20038;-67
2024/04/04 05:24:13;;;;;;;4.78;3.67;;;12.90;99.90;;;13.25;100.00;99981.00;5009580;28;20037;-67
2024/04/04 05:26:40;;;;;;;4.65;4.03;;;12.90;99.90;;;12.50;100.00;99866.41;5009526;28;20431;-69
2024/04/04 05:29:07;;;;;;;5.13;4.18;;;12.90;99.90;;;13.18;100.00;99986.53;4993317;28;20034;-67
2024/04/04 05:31:34;;;;;;;6.03;4.10;;;12.90;99.90;;;13.20;100.00;99995.31;4993170;28;20050;-68
2024/04/04 05:34:01;;;;;;;4.13;3.80;;;12.90;99.90;;;13.21;100.00;99989.09;5009726;28;20073;-66
2024/04/04 05:36:28;;;;;;;5.70;3.85;;;12.90;99.90;;;13.26;100.00;99998.66;4993338;28;20402;-66
2024/04/04 05:38:54;;;;;;;4.82;4.10;;;12.90;99.90;;;13.29;100.00;99990.63;5009332;28;20121;-66
2024/04/04 05:41:23;;;;;;;4.63;4.25;;;13.00;99.90;;;13.34;100.00;99990.47;5009535;28;20042;-65
2024/04/04 05:43:49;;;;;;;6.20;4.90;;;13.00;99.90;;;13.32;100.00;99993.16;4992925;28;20046;-67
2024/04/04 05:46:17;;;;;;;5.90;4.72;;;13.00;99.90;;;13.35;100.00;99998.41;5009533;28;20088;-67
2024/04/04 05:48:43;;;;;;;6.15;4.90;;;13.00;99.90;;;13.45;100.00;99996.34;5009430;28;20045;-67
2024/04/04 05:51:10;;;;;;;5.93;5.25;;;13.10;99.90;;;13.49;100.00;99998.84;4995660;28;20049;-68
2024/04/04 05:53:37;;;;;;;6.40;5.60;;;13.20;99.90;;;13.51;100.00;100004.97;5012998;28;20430;-66
2024/04/04 05:56:05;;;;;;;5.78;5.28;;;13.20;99.90;;;13.58;100.00;100001.25;5013272;28;20038;-66
2024/04/04 05:58:33;;;;;;;5.50;5.00;;;13.30;99.90;;;13.54;100.00;100009.34;4997165;28;20399;-67
2024/04/04 06:01:00;;;;;;;6.55;5.30;;;13.20;99.90;;;13.55;100.00;100011.06;5012952;28;20042;-67
2024/04/04 06:03:26;;;;;;;5.65;5.07;;;13.30;99.90;;;13.52;100.00;100006.72;5013283;28;20038;-67
2024/04/04 06:05:54;;;;;;;5.40;4.85;;;13.30;99.90;;;13.56;100.00;100013.69;5013190;28;20060;-67
2024/04/04 06:08:22;;;;;;;8.38;5.28;;;13.30;99.90;;;13.68;100.00;100006.25;5012794;28;20046;-66
2024/04/04 06:10:49;;;;;;;6.72;5.00;;;13.40;99.90;;;13.57;100.00;99995.94;5013057;28;20081;-66
2024/04/04 06:13:15;;;;;;;11.98;5.97;;;13.30;99.90;;;13.63;100.00;100002.88;5012785;28;20054;-67
2024/04/04 06:15:53;;;;;;;12.98;5.55;;;13.30;99.90;;;13.56;100.00;100005.72;5012697;28;20046;-68
2024/04/04 06:18:19;;;;;;;13.50;5.60;;;13.30;99.90;;;13.57;100.00;100004.78;5012671;28;20041;-67
2024/04/04 06:20:47;;;;;;;19.38;6.05;;;13.30;99.90;;;13.65;100.00;100006.34;5012668;28;20038;-67
2024/04/04 06:23:13;;;;;;;16.63;6.22;;;13.30;99.90;;;13.51;100.00;99998.81;4996512;28;20487;-68
2024/04/04 06:25:41;;;;;;;18.77;6.60;;;13.30;99.90;;;13.69;100.00;100005.31;5012556;28;20534;-67
2024/04/04 06:28:07;;;;;;;17.13;6.20;;;13.30;99.90;;;13.72;100.00;99989.31;5012393;28;20049;-67
2024/04/04 06:30:35;;;;;;;12.20;5.75;;;13.40;99.90;;;13.76;100.00;99991.81;5012653;28;20045;-68
2024/04/04 06:33:04;;;;;;;13.43;5.57;;;13.40;99.90;;;13.71;100.00;99995.53;5012361;28;20046;-66
2024/04/04 06:35:31;;;;;;;13.57;5.80;;;13.40;99.90;;;13.77;100.00;100000.66;5012342;28;20108;-67
2024/04/04 06:37:58;;;;;;;12.80;5.80;;;13.40;99.90;;;13.79;100.00;99998.81;5012697;28;20556;-67
2024/04/04 06:40:26;;;;;;;14.75;6.20;;;13.50;99.90;;;13.77;100.00;100001.53;5012180;28;20042;-67
2024/04/04 06:42:53;;;;;;;12.77;6.00;;;13.50;99.90;;;13.79;100.00;99997.03;5012564;28;20049;-68
2024/04/04 06:45:20;;;;;;;13.70;6.55;;;13.40;99.90;;;13.78;100.00;99986.47;5012011;28;20084;-66
2024/04/04 06:47:57;;;;;;;16.35;6.35;;;13.50;99.90;;;13.72;100.00;99991.97;5012027;28;20042;-69
2024/04/04 06:50:26;;;;;;;13.65;7.00;;;13.40;99.90;;;13.80;100.00;99995.25;5012241;28;20046;-67
2024/04/04 06:52:53;;;;;;;10.18;6.15;;;13.50;99.90;;;13.87;100.00;99995.00;5012080;28;20434;-69
2024/04/04 06:55:20;;;;;;;14.68;5.95;;;13.50;99.90;;;13.91;100.00;99996.66;4995788;28;20091;-70
2024/04/04 06:57:47;;;;;;;12.85;6.30;;;13.60;99.90;;;13.84;100.00;99995.09;5011834;28;20500;-68
2024/04/04 07:00:16;;;;;;;16.90;6.80;;;13.60;99.90;;;13.92;100.00;100003.69;5012142;28;20042;-69
2024/04/04 07:02:42;;;;;;;14.38;6.20;;;13.60;99.90;;;13.91;100.00;99987.81;5011702;28;20430;-69
2024/04/04 07:05:11;;;;;;;13.90;6.03;;;13.60;99.90;;;13.84;100.00;99991.59;5012036;28;20042;-69
2024/04/04 07:07:38;;;;;;;12.95;5.80;;;13.60;99.90;;;13.93;100.00;100007.22;5011808;28;20054;-68
2024/04/04 07:10:07;;;;;;;12.32;6.15;;;13.60;99.90;;;13.92;100.00;99974.44;4995529;28;20573;-69
2024/04/04 07:12:33;;;;;;;12.70;5.47;;;13.60;99.90;;;13.99;100.00;99981.34;5011659;28;20038;-68
2024/04/04 07:15:02;;;;;;;12.27;6.40;;;13.70;99.90;;;13.99;100.00;99980.44;5012137;28;20100;-73
2024/04/04 07:17:29;;;;;;;13.00;6.20;;;13.70;99.90;;;14.01;100.00;99989.25;5013385;28;20034;-68
2024/04/04 07:19:57;;;;;;;9.85;5.90;;;13.70;99.90;;;14.02;100.00;99993.63;5013581;28;20045;-68
2024/04/04 07:22:24;;;;;;;14.40;6.13;;;13.70;99.90;;;13.95;100.00;99990.31;5011674;28;20046;-67
2024/04/04 07:24:53;;;;;;;12.48;5.85;;;13.70;99.90;;;13.85;100.00;99972.03;5011519;28;20042;-69
2024/04/04 07:27:19;;;;;;;14.35;6.53;;;13.70;99.90;;;14.00;100.00;100003.44;5011745;28;20064;-68
2024/04/04 07:29:48;;;;;;;15.10;5.55;;;13.70;99.90;;;13.93;100.00;100012.56;5011441;28;20037;-67
2024/04/04 07:32:14;;;;;;;14.65;6.10;;;13.60;99.90;;;13.92;100.00;100005.47;5011222;28;20042;-67
2024/04/04 07:34:42;;;;;;;16.42;6.32;;;13.70;99.90;;;13.85;100.00;99993.31;4995011;28;20410;-67
2024/04/04 07:37:08;;;;;;;13.63;6.20;;;13.60;99.90;;;13.94;100.00;100008.97;5011453;28;20096;-67
2024/04/04 07:39:37;;;;;;;17.55;6.78;;;13.60;99.90;;;13.94;100.00;99999.19;5011210;28;20103;-67
2024/04/04 07:42:05;;;;;;;13.80;5.53;;;13.60;99.90;;;14.04;100.00;99994.44;5011256;28;20133;-68
2024/04/04 07:44:32;;;;;;;12.00;6.20;;;13.70;99.90;;;13.91;100.00;100001.97;5011409;28;20069;-67
2024/04/04 07:46:58;;;;;;;16.15;6.50;;;13.70;99.90;;;14.01;100.00;100007.88;5010942;28;20092;-67
2024/04/04 07:49:26;;;;;;;14.20;5.88;;;13.70;99.90;;;14.01;100.00;100011.41;5010869;28;20045;-66
2024/04/04 07:51:52;;;;;;;16.63;6.97;;;13.70;99.90;;;14.02;100.00;100025.53;5011280;28;20045;-67
2024/04/04 07:54:19;;;;;;;13.75;6.60;;;13.70;99.90;;;14.00;100.00;100016.75;5011388;28;20046;-67
2024/04/04 07:56:46;;;;;;;11.85;5.93;;;13.70;99.90;;;13.28;100.00;99911.84;5010772;28;20052;-67
2024/04/04 07:59:14;;;;;;;11.18;5.68;;;13.60;99.90;;;13.86;100.00;100033.13;5010983;28;20038;-68
2024/04/04 08:01:42;;;;;;;17.42;6.22;;;13.60;99.90;;;13.88;100.00;99988.75;5010767;28;20038;-68
2024/04/04 08:04:10;;;;;;;12.65;6.38;;;13.60;99.90;;;13.78;100.00;100008.56;5010939;28;20495;-67
2024/04/04 08:06:37;;;;;;;11.65;5.45;;;13.50;99.90;;;13.80;100.00;100016.53;5010656;28;20042;-67
2024/04/04 08:09:07;;;;;;;10.70;5.32;;;13.50;99.90;;;13.77;100.00;100017.47;5010802;28;20053;-68
2024/04/04 08:11:33;;;;;;;12.43;5.10;;;13.50;99.90;;;13.78;100.00;100013.03;5011022;28;20049;-68
2024/04/04 08:14:01;;;;;;;15.00;5.68;;;13.50;99.90;;;13.75;100.00;100010.47;5010504;28;20347;-67
2024/04/04 08:16:29;;;;;;;17.35;5.30;;;13.40;99.90;;;13.80;100.00;100009.38;4994211;28;20514;-68
2024/04/04 08:18:57;;;;;;;14.60;5.55;;;13.50;99.90;;;13.70;100.00;100009.75;5010574;28;20574;-67
2024/04/04 08:21:23;;;;;;;15.45;5.38;;;13.40;99.90;;;13.81;100.00;100008.50;5011093;28;20046;-67
2024/04/04 08:23:50;;;;;;;15.00;5.80;;;13.50;99.90;;;13.84;100.00;99991.59;5010505;28;20064;-68
2024/04/04 08:26:22;;;;;;;13.40;5.28;;;13.50;99.90;;;13.96;100.00;100004.47;4994121;28;20483;-68
2024/04/04 08:28:49;;;;;;;13.50;5.80;;;13.60;99.90;;;13.93;100.00;100001.91;5010365;28;20065;-68
2024/04/04 08:31:16;;;;;;;15.68;6.13;;;13.70;99.90;;;13.93;100.00;100023.19;5010203;28;20518;-67
2024/04/04 08:33:44;;;;;;;18.38;6.82;;;13.60;99.90;;;14.00;100.00;100020.28;5010366;28;20046;-67
2024/04/04 08:36:11;;;;;;;18.52;6.18;;;13.70;99.90;;;13.95;100.00;100005.41;5010247;28;20050;-67
2024/04/04 08:38:38;;;;;;;17.98;5.88;;;13.70;99.90;;;13.98;100.00;100021.22;5010043;28;20119;-67
2024/04/04 08:41:07;;;;;;;23.65;6.47;;;13.70;99.90;;;13.89;100.00;100005.59;5010259;28;20077;-67
2024/04/04 08:43:35;;;;;;;16.23;5.53;;;13.60;99.90;;;13.92;100.00;100017.00;4993642;28;20057;-67
2024/04/04 08:46:06;;;;;;;19.83;5.85;;;13.70;99.90;;;13.86;100.00;100035.78;5010068;28;20089;-66
2024/04/04 08:48:34;;;;;;;20.40;6.32;;;13.60;99.90;;;13.88;100.00;100041.09;4993859;28;20042;-67
2024/04/04 08:51:03;;;;;;;19.23;6.07;;;13.60;99.90;;;13.91;100.00;100052.47;5010277;28;20483;-67
2024/04/04 08:53:31;;;;;;;20.02;6.05;;;13.60;99.90;;;14.09;100.00;100027.94;5010990;28;20060;-67
2024/04/04 08:55:59;;;;;;;27.63;6.75;;;13.80;99.90;;;14.55;100.00;100042.44;5012085;28;20056;-68
2024/04/04 08:58:27;;;;;;;18.55;5.80;;;14.20;99.90;;;14.72;100.00;100054.25;4995461;28;20129;-68
2024/04/04 09:00:53;;;;;;;19.35;6.18;;;14.40;99.90;;;14.91;100.00;100039.38;5012204;28;20042;-69
2024/04/04 09:03:22;;;;;;;19.38;5.55;;;14.70;99.90;;;14.98;100.00;100037.38;5011663;28;20049;-67
2024/04/04 09:05:50;;;;;;;14.35;6.65;;;14.80;99.90;;;15.15;100.00;100059.81;4995301;28;20053;-68
2024/04/04 09:08:19;;;;;;;19.77;5.57;;;14.90;99.90;;;15.12;99.87;100059.91;5011633;28;20045;-67
2024/04/04 09:10:48;;;;;;;18.48;5.18;;;14.90;99.90;;;14.92;96.77;100078.41;5011902;28;20077;-68
2024/04/04 09:13:16;;;;;;;20.95;5.47;;;14.80;99.90;;;14.79;95.23;100041.63;4995224;28;20045;-68
2024/04/04 09:15:42;;;;;;;14.25;5.63;;;14.60;99.90;;;14.73;96.02;100066.63;5011947;28;20048;-68
2024/04/04 09:18:11;;;;;;;20.58;6.78;;;14.50;99.90;;;14.69;95.48;100074.78;5011744;28;20050;-68
2024/04/04 09:20:39;;;;;;;19.02;5.90;;;14.50;99.90;;;14.70;95.62;100068.53;5011486;28;20050;-68
2024/04/04 09:23:08;;;;;;;25.30;6.07;;;14.40;99.90;;;14.76;95.79;100093.16;5011491;28;20793;-68
2024/04/04 09:25:37;;;;;;;17.50;6.22;;;14.40;99.90;;;14.68;95.19;100057.94;5013505;28;20385;-68
2024/04/04 09:28:06;;;;;;;24.25;6.35;;;14.40;99.90;;;14.77;95.30;100073.59;5015592;28;20038;-68
2024/04/04 09:30:34;;;;;;;23.55;6.60;;;14.50;99.90;;;14.97;95.53;100075.56;4999030;28;20054;-68
2024/04/04 09:33:03;;;;;;;14.40;5.38;;;14.60;99.90;;;15.25;94.95;100113.66;5015418;28;20052;-67
2024/04/04 09:35:31;;;;;;;23.13;5.90;;;14.90;99.90;;;15.17;93.07;100111.25;5015492;28;20042;-67
2024/04/04 09:38:00;;;;;;;17.50;6.13;;;14.90;99.90;;;14.97;92.27;100089.75;5015499;28;20499;-67
2024/04/04 09:40:27;;;;;;;21.10;6.43;;;14.80;99.90;;;14.97;91.37;100112.84;5015378;28;20119;-68
2024/04/04 09:42:57;;;;;;;17.17;5.28;;;14.70;99.90;;;15.06;91.88;100102.75;5015077;28;20042;-67
2024/04/04 09:45:24;;;;;;;22.83;6.55;;;14.80;99.90;;;15.10;91.11;100112.38;5015341;28;20064;-67
2024/04/04 09:47:51;;;;;;;19.33;7.10;;;14.80;99.90;;;15.10;90.57;100125.69;5015389;28;20442;-68
2024/04/04 09:50:19;;;;;;;20.00;6.25;;;14.80;99.90;;;15.51;91.35;100118.06;5015043;28;20058;-67
2024/04/04 09:52:48;;;;;;;22.05;6.13;;;15.20;99.90;;;15.65;88.43;100119.31;5015062;28;20487;-68
2024/04/04 09:55:18;;;;;;;16.90;5.95;;;15.40;99.90;;;15.88;87.51;100131.75;4998762;28;20046;-68
2024/04/04 09:57:46;;;;;;;27.40;6.63;;;15.60;99.90;;;15.99;86.63;100124.22;5015334;28;20119;-67
2024/04/04 10:00:17;;;;;;;21.98;5.82;;;15.70;99.90;;;16.21;86.28;100130.47;5015115;28;20096;-68
2024/04/04 10:02:48;;;;;;;27.45;6.63;;;15.90;99.90;;;16.34;86.19;100137.06;5015350;28;20057;-67
2024/04/04 10:05:17;;;;;;;16.77;6.00;;;16.10;99.90;;;16.18;82.26;100114.59;5015194;28;20053;-68